sensor_id;sensor_type;location;lat;lon;timestamp;pressure;altitude;pressure_sealevel;temperature;humidity
34370;BME280;20635;55.812;37.560;2022-11-20T00:01:19;99433.91;;;24.01;27.14
34370;BME280;20635;55.812;37.560;2022-11-20T00:03:45;99432.25;;;24.00;27.41
34370;BME280;20635;55.812;37.560;2022-11-20T00:06:14;99435.06;;;24.00;27.34
34370;BME280;20635;55.812;37.560;2022-11-20T00:08:40;99431.44;;;24.00;27.20
34370;BME280;20635;55.812;37.560;2022-11-20T00:11:11;99445.44;;;24.00;27.41
34370;BME280;20635;55.812;37.560;2022-11-20T00:13:37;99439.00;;;23.99;27.10
34370;BME280;20635;55.812;37.560;2022-11-20T00:16:06;99434.22;;;24.00;27.15
34370;BME280;20635;55.812;37.560;2022-11-20T00:18:33;99445.78;;;23.98;27.11
34370;BME280;20635;55.812;37.560;2022-11-20T00:21:01;99441.00;;;23.99;27.19
34370;BME280;20635;55.812;37.560;2022-11-20T00:23:27;99437.38;;;23.98;27.14
34370;BME280;20635;55.812;37.560;2022-11-20T00:25:53;99435.41;;;23.99;27.46
34370;BME280;20635;55.812;37.560;2022-11-20T00:28:19;99446.59;;;23.99;27.59
34370;BME280;20635;55.812;37.560;2022-11-20T00:30:45;99438.19;;;23.99;27.34
34370;BME280;20635;55.812;37.560;2022-11-20T00:33:10;99440.16;;;23.98;27.15
34370;BME280;20635;55.812;37.560;2022-11-20T00:35:36;99439.66;;;23.96;27.41
34370;BME280;20635;55.812;37.560;2022-11-20T00:38:02;99441.31;;;23.97;27.42
34370;BME280;20635;55.812;37.560;2022-11-20T00:40:28;99434.06;;;23.96;27.15
34370;BME280;20635;55.812;37.560;2022-11-20T00:42:54;99440.47;;;23.97;27.47
34370;BME280;20635;55.812;37.560;2022-11-20T00:45:20;99438.50;;;23.97;27.33
34370;BME280;20635;55.812;37.560;2022-11-20T00:47:46;99434.06;;;23.96;27.07
34370;BME280;20635;55.812;37.560;2022-11-20T00:50:12;99438.84;;;23.96;27.23
34370;BME280;20635;55.812;37.560;2022-11-20T00:52:37;99437.69;;;23.97;27.25
34370;BME280;20635;55.812;37.560;2022-11-20T00:55:04;99432.44;;;23.95;27.10
34370;BME280;20635;55.812;37.560;2022-11-20T00:57:30;99438.84;;;23.96;27.18
34370;BME280;20635;55.812;37.560;2022-11-20T00:59:56;99434.88;;;23.97;27.10
34370;BME280;20635;55.812;37.560;2022-11-20T01:02:22;99436.03;;;23.96;27.34
34370;BME280;20635;55.812;37.560;2022-11-20T01:04:48;99436.88;;;23.96;27.32
34370;BME280;20635;55.812;37.560;2022-11-20T01:07:14;99440.81;;;23.95;27.12
34370;BME280;20635;55.812;37.560;2022-11-20T01:09:40;99438.38;;;23.94;27.38
34370;BME280;20635;55.812;37.560;2022-11-20T01:12:06;99427.97;;;23.94;27.03
34370;BME280;20635;55.812;37.560;2022-11-20T01:14:31;99430.78;;;23.94;27.42
34370;BME280;20635;55.812;37.560;2022-11-20T01:16:57;99436.38;;;23.94;27.06
34370;BME280;20635;55.812;37.560;2022-11-20T01:19:23;99435.56;;;23.94;27.29
34370;BME280;20635;55.812;37.560;2022-11-20T01:21:51;99431.09;;;23.93;27.06
34370;BME280;20635;55.812;37.560;2022-11-20T01:24:20;99429.13;;;23.93;27.38
34370;BME280;20635;55.812;37.560;2022-11-20T01:26:48;99426.31;;;23.93;27.38
34370;BME280;20635;55.812;37.560;2022-11-20T01:29:24;99432.44;;;23.95;27.23
34370;BME280;20635;55.812;37.560;2022-11-20T01:31:50;99431.44;;;23.91;27.06
34370;BME280;20635;55.812;37.560;2022-11-20T01:34:19;99435.88;;;23.92;27.35
34370;BME280;20635;55.812;37.560;2022-11-20T01:36:45;99434.22;;;23.91;26.96
34370;BME280;20635;55.812;37.560;2022-11-20T01:39:29;99441.97;;;23.94;27.04
34370;BME280;20635;55.812;37.560;2022-11-20T01:41:55;99437.03;;;23.91;26.98
34370;BME280;20635;55.812;37.560;2022-11-20T01:47:40;99445.09;;;23.93;27.25
34370;BME280;20635;55.812;37.560;2022-11-20T01:50:18;99452.66;;;23.92;27.33
34370;BME280;20635;55.812;37.560;2022-11-20T01:52:52;99453.00;;;23.91;27.22
34370;BME280;20635;55.812;37.560;2022-11-20T01:55:34;99458.25;;;23.92;27.14
34370;BME280;20635;55.812;37.560;2022-11-20T01:58:02;99463.38;;;23.90;27.22
34370;BME280;20635;55.812;37.560;2022-11-20T02:00:28;99462.56;;;23.90;27.24
34370;BME280;20635;55.812;37.560;2022-11-20T02:02:57;99463.69;;;23.89;27.29
34370;BME280;20635;55.812;37.560;2022-11-20T02:06:12;99461.75;;;23.89;27.08
34370;BME280;20635;55.812;37.560;2022-11-20T02:08:13;99464.03;;;23.87;27.02
34370;BME280;20635;55.812;37.560;2022-11-20T02:10:39;99474.06;;;23.88;27.15
34370;BME280;20635;55.812;37.560;2022-11-20T02:13:05;99478.00;;;23.87;27.05
34370;BME280;20635;55.812;37.560;2022-11-20T02:15:50;99484.13;;;23.89;27.21
34370;BME280;20635;55.812;37.560;2022-11-20T02:18:19;99489.72;;;23.89;27.17
34370;BME280;20635;55.812;37.560;2022-11-20T02:20:47;99481.31;;;23.89;26.92
34370;BME280;20635;55.812;37.560;2022-11-20T02:23:39;99485.44;;;23.92;27.29
34370;BME280;20635;55.812;37.560;2022-11-20T02:26:11;99488.88;;;23.89;27.06
34370;BME280;20635;55.812;37.560;2022-11-20T02:28:38;99485.59;;;23.87;27.29
34370;BME280;20635;55.812;37.560;2022-11-20T02:31:05;99494.81;;;23.87;27.16
34370;BME280;20635;55.812;37.560;2022-11-20T02:33:30;99486.75;;;23.86;27.06
34370;BME280;20635;55.812;37.560;2022-11-20T02:35:56;99498.75;;;23.86;27.42
34370;BME280;20635;55.812;37.560;2022-11-20T02:38:22;99503.19;;;23.87;27.27
34370;BME280;20635;55.812;37.560;2022-11-20T02:40:48;99500.75;;;23.86;27.36
34370;BME280;20635;55.812;37.560;2022-11-20T02:43:15;99501.56;;;23.86;27.08
34370;BME280;20635;55.812;37.560;2022-11-20T02:45:41;99499.91;;;23.85;27.13
34370;BME280;20635;55.812;37.560;2022-11-20T02:48:07;99507.16;;;23.86;27.48
34370;BME280;20635;55.812;37.560;2022-11-20T02:50:35;99504.69;;;23.85;27.39
34370;BME280;20635;55.812;37.560;2022-11-20T02:53:01;99505.50;;;23.85;27.66
34370;BME280;20635;55.812;37.560;2022-11-20T02:55:27;99503.53;;;23.86;27.63
34370;BME280;20635;55.812;37.560;2022-11-20T02:57:54;99504.34;;;23.86;27.61
34370;BME280;20635;55.812;37.560;2022-11-20T03:00:20;99505.50;;;23.85;27.21
34370;BME280;20635;55.812;37.560;2022-11-20T03:02:45;99505.50;;;23.85;27.07
34370;BME280;20635;55.812;37.560;2022-11-20T03:05:11;99510.28;;;23.85;27.21
34370;BME280;20635;55.812;37.560;2022-11-20T03:07:37;99504.69;;;23.85;27.11
34370;BME280;20635;55.812;37.560;2022-11-20T03:10:04;99508.63;;;23.84;27.29
34370;BME280;20635;55.812;37.560;2022-11-20T03:12:30;99517.84;;;23.84;27.35
34370;BME280;20635;55.812;37.560;2022-11-20T03:14:56;99513.09;;;23.85;27.12
34370;BME280;20635;55.812;37.560;2022-11-20T03:17:22;99513.09;;;23.85;27.37
34370;BME280;20635;55.812;37.560;2022-11-20T03:19:48;99508.63;;;23.84;27.29
34370;BME280;20635;55.812;37.560;2022-11-20T03:22:13;99507.50;;;23.85;27.11
34370;BME280;20635;55.812;37.560;2022-11-20T03:24:39;99511.41;;;23.84;27.19
34370;BME280;20635;55.812;37.560;2022-11-20T03:27:05;99517.00;;;23.84;26.88
34370;BME280;20635;55.812;37.560;2022-11-20T03:29:31;99520.63;;;23.84;26.97
34370;BME280;20635;55.812;37.560;2022-11-20T03:31:57;99512.25;;;23.84;27.21
34370;BME280;20635;55.812;37.560;2022-11-20T03:34:23;99511.41;;;23.84;26.85
34370;BME280;20635;55.812;37.560;2022-11-20T03:36:49;99515.03;;;23.84;26.70
34370;BME280;20635;55.812;37.560;2022-11-20T03:39:15;99513.41;;;23.83;26.62
34370;BME280;20635;55.812;37.560;2022-11-20T03:41:41;99514.22;;;23.84;26.61
34370;BME280;20635;55.812;37.560;2022-11-20T03:44:09;99519.50;;;23.85;26.66
34370;BME280;20635;55.812;37.560;2022-11-20T03:46:36;99520.63;;;23.84;26.48
34370;BME280;20635;55.812;37.560;2022-11-20T03:49:02;99514.22;;;23.84;26.86
34370;BME280;20635;55.812;37.560;2022-11-20T03:51:30;99524.28;;;23.85;26.67
34370;BME280;20635;55.812;37.560;2022-11-20T03:53:58;99526.56;;;23.83;26.64
34370;BME280;20635;55.812;37.560;2022-11-20T03:56:34;99523.94;;;23.86;26.53
34370;BME280;20635;55.812;37.560;2022-11-20T03:59:00;99521.78;;;23.83;26.50
34370;BME280;20635;55.812;37.560;2022-11-20T04:01:29;99527.38;;;23.83;26.74
34370;BME280;20635;55.812;37.560;2022-11-20T04:03:56;99531.81;;;23.84;26.71
34370;BME280;20635;55.812;37.560;2022-11-20T04:06:25;99537.41;;;23.84;26.50
34370;BME280;20635;55.812;37.560;2022-11-20T04:08:56;99531.00;;;23.84;26.71
34370;BME280;20635;55.812;37.560;2022-11-20T04:11:28;99534.31;;;23.86;26.65
34370;BME280;20635;55.812;37.560;2022-11-20T04:13:56;99534.63;;;23.84;26.74
34370;BME280;20635;55.812;37.560;2022-11-20T04:16:23;99542.53;;;23.82;26.34
34370;BME280;20635;55.812;37.560;2022-11-20T04:18:57;99535.78;;;23.83;26.58
34370;BME280;20635;55.812;37.560;2022-11-20T04:21:24;99548.94;;;23.83;26.49
34370;BME280;20635;55.812;37.560;2022-11-20T04:23:51;99549.78;;;23.83;26.53
34370;BME280;20635;55.812;37.560;2022-11-20T04:26:18;99554.56;;;23.83;26.50
34370;BME280;20635;55.812;37.560;2022-11-20T04:28:44;99549.78;;;23.83;26.73
34370;BME280;20635;55.812;37.560;2022-11-20T04:31:15;99558.50;;;23.82;26.40
34370;BME280;20635;55.812;37.560;2022-11-20T04:33:41;99554.88;;;23.81;26.33
34370;BME280;20635;55.812;37.560;2022-11-20T04:36:14;99564.91;;;23.82;26.32
34370;BME280;20635;55.812;37.560;2022-11-20T04:38:40;99557.69;;;23.81;26.65
34370;BME280;20635;55.812;37.560;2022-11-20T04:41:15;99564.09;;;23.82;26.42
34370;BME280;20635;55.812;37.560;2022-11-20T04:43:41;99577.28;;;23.81;26.67
34370;BME280;20635;55.812;37.560;2022-11-20T04:46:07;99571.69;;;23.81;26.65
34370;BME280;20635;55.812;37.560;2022-11-20T04:48:34;99574.47;;;23.81;26.32
34370;BME280;20635;55.812;37.560;2022-11-20T04:51:03;99590.44;;;23.81;26.35
34370;BME280;20635;55.812;37.560;2022-11-20T04:53:30;99597.16;;;23.79;26.43
34370;BME280;20635;55.812;37.560;2022-11-20T04:56:03;99594.88;;;23.82;26.40
34370;BME280;20635;55.812;37.560;2022-11-20T04:58:29;99599.66;;;23.81;26.24
34370;BME280;20635;55.812;37.560;2022-11-20T05:01:06;99599.31;;;23.83;26.74
34370;BME280;20635;55.812;37.560;2022-11-20T05:03:32;99598.00;;;23.80;26.46
34370;BME280;20635;55.812;37.560;2022-11-20T05:06:04;99599.66;;;23.81;26.47
34370;BME280;20635;55.812;37.560;2022-11-20T05:08:31;99598.00;;;23.80;26.65
34370;BME280;20635;55.812;37.560;2022-11-20T05:11:08;99596.03;;;23.81;26.73
34370;BME280;20635;55.812;37.560;2022-11-20T05:13:35;99593.53;;;23.79;26.66
34370;BME280;20635;55.812;37.560;2022-11-20T05:18:31;99599.97;;;23.79;26.75
34370;BME280;20635;55.812;37.560;2022-11-20T05:20:57;99599.97;;;23.79;26.57
34370;BME280;20635;55.812;37.560;2022-11-20T05:23:24;99605.56;;;23.79;26.50
34370;BME280;20635;55.812;37.560;2022-11-20T05:25:54;99615.63;;;23.81;26.51
34370;BME280;20635;55.812;37.560;2022-11-20T05:28:20;99618.72;;;23.79;26.51
34370;BME280;20635;55.812;37.560;2022-11-20T05:30:46;99618.72;;;23.79;26.49
34370;BME280;20635;55.812;37.560;2022-11-20T05:33:12;99618.72;;;23.79;26.72
34370;BME280;20635;55.812;37.560;2022-11-20T05:35:38;99632.72;;;23.79;26.70
34370;BME280;20635;55.812;37.560;2022-11-20T05:38:04;99627.94;;;23.79;26.41
34370;BME280;20635;55.812;37.560;2022-11-20T05:40:30;99634.69;;;23.78;26.78
34370;BME280;20635;55.812;37.560;2022-11-20T05:42:56;99634.69;;;23.78;26.55
34370;BME280;20635;55.812;37.560;2022-11-20T05:45:21;99635.84;;;23.77;26.72
34370;BME280;20635;55.812;37.560;2022-11-20T05:47:47;99638.31;;;23.79;26.57
34370;BME280;20635;55.812;37.560;2022-11-20T05:50:14;99632.22;;;23.77;26.86
34370;BME280;20635;55.812;37.560;2022-11-20T05:52:41;99642.59;;;23.76;26.78
34370;BME280;20635;55.812;37.560;2022-11-20T05:55:07;99643.75;;;23.75;26.55
34370;BME280;20635;55.812;37.560;2022-11-20T05:57:34;99642.91;;;23.75;26.50
34370;BME280;20635;55.812;37.560;2022-11-20T06:00:00;99650.47;;;23.74;26.62
34370;BME280;20635;55.812;37.560;2022-11-20T06:02:26;99654.94;;;23.75;26.33
34370;BME280;20635;55.812;37.560;2022-11-20T06:04:52;99658.03;;;23.74;26.47
34370;BME280;20635;55.812;37.560;2022-11-20T06:07:18;99657.22;;;23.73;26.83
34370;BME280;20635;55.812;37.560;2022-11-20T06:09:44;99669.25;;;23.74;26.60
34370;BME280;20635;55.812;37.560;2022-11-20T06:12:10;99668.41;;;23.73;26.69
34370;BME280;20635;55.812;37.560;2022-11-20T06:14:36;99673.19;;;23.73;26.47
34370;BME280;20635;55.812;37.560;2022-11-20T06:17:02;99679.59;;;23.73;26.83
34370;BME280;20635;55.812;37.560;2022-11-20T06:19:28;99670.41;;;23.73;26.47
34370;BME280;20635;55.812;37.560;2022-11-20T06:21:54;99673.19;;;23.73;26.39
34370;BME280;20635;55.812;37.560;2022-11-20T06:24:19;99675.47;;;23.71;26.73
34370;BME280;20635;55.812;37.560;2022-11-20T06:26:45;99685.53;;;23.72;26.49
34370;BME280;20635;55.812;37.560;2022-11-20T06:29:11;99684.38;;;23.73;26.77
34370;BME280;20635;55.812;37.560;2022-11-20T06:31:37;99679.13;;;23.71;26.80
34370;BME280;20635;55.812;37.560;2022-11-20T06:34:06;99692.78;;;23.73;27.12
34370;BME280;20635;55.812;37.560;2022-11-20T06:36:33;99698.69;;;23.71;26.68
34370;BME280;20635;55.812;37.560;2022-11-20T06:39:00;99697.84;;;23.71;27.12
34370;BME280;20635;55.812;37.560;2022-11-20T06:41:26;99705.13;;;23.72;26.63
34370;BME280;20635;55.812;37.560;2022-11-20T06:43:51;99693.94;;;23.72;26.73
34370;BME280;20635;55.812;37.560;2022-11-20T06:46:19;99700.66;;;23.71;26.92
34370;BME280;20635;55.812;37.560;2022-11-20T06:48:45;99695.91;;;23.71;27.10
34370;BME280;20635;55.812;37.560;2022-11-20T06:51:11;99697.84;;;23.71;26.90
34370;BME280;20635;55.812;37.560;2022-11-20T06:53:37;99697.84;;;23.71;26.67
34370;BME280;20635;55.812;37.560;2022-11-20T06:56:04;99687.50;;;23.71;27.07
34370;BME280;20635;55.812;37.560;2022-11-20T06:58:31;99689.16;;;23.72;26.83
34370;BME280;20635;55.812;37.560;2022-11-20T07:01:01;99692.78;;;23.73;27.01
34370;BME280;20635;55.812;37.560;2022-11-20T07:03:28;99696.72;;;23.72;27.06
34370;BME280;20635;55.812;37.560;2022-11-20T07:05:57;99693.59;;;23.73;27.28
34370;BME280;20635;55.812;37.560;2022-11-20T07:08:25;99706.75;;;23.73;27.66
34370;BME280;20635;55.812;37.560;2022-11-20T07:10:51;99700.00;;;23.74;27.74
34370;BME280;20635;55.812;37.560;2022-11-20T07:13:17;99690.47;;;23.75;27.68
34370;BME280;20635;55.812;37.560;2022-11-20T07:15:42;99702.50;;;23.75;27.77
34370;BME280;20635;55.812;37.560;2022-11-20T07:18:09;99687.38;;;23.76;27.83
34370;BME280;20635;55.812;37.560;2022-11-20T07:20:34;99688.19;;;23.77;26.96
34370;BME280;20635;55.812;37.560;2022-11-20T07:23:00;99680.94;;;23.76;27.00
34370;BME280;20635;55.812;37.560;2022-11-20T07:25:27;99696.25;;;23.78;27.10
34370;BME280;20635;55.812;37.560;2022-11-20T07:27:58;99697.06;;;23.79;27.01
34370;BME280;20635;55.812;37.560;2022-11-20T07:30:24;99701.84;;;23.78;26.73
34370;BME280;20635;55.812;37.560;2022-11-20T07:32:51;99706.28;;;23.79;26.75
34370;BME280;20635;55.812;37.560;2022-11-20T07:35:17;99701.56;;;23.80;26.76
34370;BME280;20635;55.812;37.560;2022-11-20T07:37:43;99708.78;;;23.81;26.79
34370;BME280;20635;55.812;37.560;2022-11-20T07:40:12;99701.22;;;23.82;26.66
34370;BME280;20635;55.812;37.560;2022-11-20T07:42:38;99699.25;;;23.82;26.62
34370;BME280;20635;55.812;37.560;2022-11-20T07:45:04;99701.72;;;23.84;26.76
34370;BME280;20635;55.812;37.560;2022-11-20T07:47:37;99712.59;;;23.85;26.61
34370;BME280;20635;55.812;37.560;2022-11-20T07:50:03;99718.19;;;23.85;26.32
34370;BME280;20635;55.812;37.560;2022-11-20T07:52:29;99709.81;;;23.85;26.34
34370;BME280;20635;55.812;37.560;2022-11-20T07:54:55;99713.41;;;23.86;26.68
34370;BME280;20635;55.812;37.560;2022-11-20T07:57:20;99717.03;;;23.86;26.43
34370;BME280;20635;55.812;37.560;2022-11-20T07:59:46;99718.69;;;23.87;26.51
34370;BME280;20635;55.812;37.560;2022-11-20T08:02:12;99716.41;;;23.89;26.50
34370;BME280;20635;55.812;37.560;2022-11-20T08:04:38;99713.59;;;23.89;26.25
34370;BME280;20635;55.812;37.560;2022-11-20T08:07:04;99708.84;;;23.90;26.63
34370;BME280;20635;55.812;37.560;2022-11-20T08:09:30;99712.13;;;23.92;26.63
34370;BME280;20635;55.812;37.560;2022-11-20T08:11:55;99726.13;;;23.92;26.40
34370;BME280;20635;55.812;37.560;2022-11-20T08:14:40;99727.75;;;23.93;26.59
34370;BME280;20635;55.812;37.560;2022-11-20T08:17:05;99722.97;;;23.93;26.37
34370;BME280;20635;55.812;37.560;2022-11-20T08:19:31;99722.69;;;23.95;26.34
34370;BME280;20635;55.812;37.560;2022-11-20T08:21:57;99734.69;;;23.95;26.48
34370;BME280;20635;55.812;37.560;2022-11-20T08:24:23;99736.34;;;23.96;26.39
34370;BME280;20635;55.812;37.560;2022-11-20T08:26:50;99736.34;;;23.96;26.37
34370;BME280;20635;55.812;37.560;2022-11-20T08:29:16;99722.34;;;23.96;26.53
34370;BME280;20635;55.812;37.560;2022-11-20T08:31:41;99714.47;;;23.98;26.65
34370;BME280;20635;55.812;37.560;2022-11-20T08:34:07;99727.31;;;23.99;26.86
34370;BME280;20635;55.812;37.560;2022-11-20T08:36:33;99739.34;;;24.00;26.70
34370;BME280;20635;55.812;37.560;2022-11-20T08:39:00;99739.00;;;24.01;26.77
34370;BME280;20635;55.812;37.560;2022-11-20T08:41:27;99737.84;;;24.02;26.99
34370;BME280;20635;55.812;37.560;2022-11-20T08:43:55;99745.94;;;24.04;26.69
34370;BME280;20635;55.812;37.560;2022-11-20T08:46:23;99741.97;;;24.05;27.01
34370;BME280;20635;55.812;37.560;2022-11-20T08:48:49;99749.22;;;24.06;26.92
34370;BME280;20635;55.812;37.560;2022-11-20T08:51:15;99750.06;;;24.07;26.89
34370;BME280;20635;55.812;37.560;2022-11-20T08:53:42;99746.13;;;24.08;27.09
34370;BME280;20635;55.812;37.560;2022-11-20T08:56:08;99758.97;;;24.09;26.91
34370;BME280;20635;55.812;37.560;2022-11-20T08:58:35;99758.63;;;24.10;26.92
34370;BME280;20635;55.812;37.560;2022-11-20T09:01:01;99767.84;;;24.11;27.26
34370;BME280;20635;55.812;37.560;2022-11-20T09:03:27;99770.34;;;24.12;26.92
34370;BME280;20635;55.812;37.560;2022-11-20T09:06:05;99769.69;;;24.15;27.19
34370;BME280;20635;55.812;37.560;2022-11-20T09:08:32;99784.03;;;24.14;27.23
34370;BME280;20635;55.812;37.560;2022-11-20T09:10:58;99786.81;;;24.14;27.12
34370;BME280;20635;55.812;37.560;2022-11-20T09:13:26;99799.66;;;24.15;27.18
34370;BME280;20635;55.812;37.560;2022-11-20T09:15:56;99802.13;;;24.16;27.18
34370;BME280;20635;55.812;37.560;2022-11-20T09:18:23;99798.50;;;24.16;27.32
34370;BME280;20635;55.812;37.560;2022-11-20T09:20:50;99799.34;;;24.16;27.18
34370;BME280;20635;55.812;37.560;2022-11-20T09:23:16;99806.63;;;24.17;27.40
34370;BME280;20635;55.812;37.560;2022-11-20T09:25:42;99811.38;;;24.17;27.45
34370;BME280;20635;55.812;37.560;2022-11-20T09:28:08;99817.81;;;24.17;27.14
34370;BME280;20635;55.812;37.560;2022-11-20T09:30:35;99824.22;;;24.18;27.32
34370;BME280;20635;55.812;37.560;2022-11-20T09:33:04;99836.25;;;24.18;27.39
34370;BME280;20635;55.812;37.560;2022-11-20T09:35:32;99837.06;;;24.19;27.29
34370;BME280;20635;55.812;37.560;2022-11-20T09:37:58;99831.47;;;24.19;27.47
34370;BME280;20635;55.812;37.560;2022-11-20T09:40:26;99837.06;;;24.19;27.30
34370;BME280;20635;55.812;37.560;2022-11-20T09:54:26;99846.16;;;24.24;27.18
34370;BME280;20635;55.812;37.560;2022-11-20T09:56:56;99842.06;;;24.22;27.33
34370;BME280;20635;55.812;37.560;2022-11-20T10:02:01;99837.06;;;24.19;27.26
34370;BME280;20635;55.812;37.560;2022-11-20T10:04:31;99847.66;;;24.22;27.38
34370;BME280;20635;55.812;37.560;2022-11-20T10:07:15;99840.88;;;24.23;27.79
34370;BME280;20635;55.812;37.560;2022-11-20T10:09:52;99846.16;;;24.24;27.85
34370;BME280;20635;55.812;37.560;2022-11-20T10:12:27;99850.63;;;24.25;27.79
34370;BME280;20635;55.812;37.560;2022-11-20T10:20:15;99850.78;;;24.29;28.62
34370;BME280;20635;55.812;37.560;2022-11-20T10:22:54;99853.59;;;24.29;28.50
34370;BME280;20635;55.812;37.560;2022-11-20T10:26:02;99847.38;;;24.32;28.96
34370;BME280;20635;55.812;37.560;2022-11-20T10:29:22;99854.59;;;24.33;30.31
34370;BME280;20635;55.812;37.560;2022-11-20T10:31:32;99855.75;;;24.32;30.43
34370;BME280;20635;55.812;37.560;2022-11-20T10:34:01;99854.59;;;24.33;30.91
34370;BME280;20635;55.812;37.560;2022-11-20T10:36:40;99862.06;;;24.38;30.89
34370;BME280;20635;55.812;37.560;2022-11-20T10:39:35;99864.59;;;24.39;31.06
34370;BME280;20635;55.812;37.560;2022-11-20T10:42:09;99860.63;;;24.40;31.71
34370;BME280;20635;55.812;37.560;2022-11-20T10:44:39;99859.81;;;24.40;32.02
34370;BME280;20635;55.812;37.560;2022-11-20T10:47:28;99858.66;;;24.41;32.13
34370;BME280;20635;55.812;37.560;2022-11-20T10:49:58;99869.50;;;24.42;32.53
34370;BME280;20635;55.812;37.560;2022-11-20T10:53:04;99876.94;;;24.47;32.04
34370;BME280;20635;55.812;37.560;2022-11-20T10:58:13;99873.00;;;24.48;32.55
34370;BME280;20635;55.812;37.560;2022-11-20T11:00:39;99877.78;;;24.47;31.98
34370;BME280;20635;55.812;37.560;2022-11-20T11:03:21;99890.81;;;24.52;32.11
34370;BME280;20635;55.812;37.560;2022-11-20T11:08:18;99882.75;;;24.50;32.28
34370;BME280;20635;55.812;37.560;2022-11-20T11:11:00;99882.09;;;24.53;32.10
34370;BME280;20635;55.812;37.560;2022-11-20T11:13:29;99887.19;;;24.51;32.54
34370;BME280;20635;55.812;37.560;2022-11-20T11:15:56;99895.28;;;24.53;32.02
34370;BME280;20635;55.812;37.560;2022-11-20T11:18:34;99897.75;;;24.54;32.27
34370;BME280;20635;55.812;37.560;2022-11-20T11:21:03;99902.53;;;24.54;32.49
34370;BME280;20635;55.812;37.560;2022-11-20T11:23:38;99903.03;;;24.56;32.54
34370;BME280;20635;55.812;37.560;2022-11-20T11:26:06;99905.34;;;24.54;31.13
34370;BME280;20635;55.812;37.560;2022-11-20T11:28:33;99896.94;;;24.54;32.42
34370;BME280;20635;55.812;37.560;2022-11-20T11:30:59;99901.38;;;24.55;32.41
34370;BME280;20635;55.812;37.560;2022-11-20T11:33:27;99900.22;;;24.56;32.53
34370;BME280;20635;55.812;37.560;2022-11-20T11:36:04;99896.78;;;24.59;32.43
34370;BME280;20635;55.812;37.560;2022-11-20T11:38:42;99903.84;;;24.57;32.37
34370;BME280;20635;55.812;37.560;2022-11-20T11:41:15;99902.41;;;24.59;32.09
34370;BME280;20635;55.812;37.560;2022-11-20T11:43:51;99899.28;;;24.61;32.22
34370;BME280;20635;55.812;37.560;2022-11-20T11:46:36;99895.97;;;24.59;32.33
34370;BME280;20635;55.812;37.560;2022-11-20T11:51:41;99902.06;;;24.61;32.34
34370;BME280;20635;55.812;37.560;2022-11-20T11:54:38;99904.56;;;24.62;32.12
34370;BME280;20635;55.812;37.560;2022-11-20T11:57:40;99903.41;;;24.63;32.00
34370;BME280;20635;55.812;37.560;2022-11-20T12:00:17;99911.28;;;24.61;31.53
34370;BME280;20635;55.812;37.560;2022-11-20T12:05:28;99914.63;;;24.63;31.70
34370;BME280;20635;55.812;37.560;2022-11-20T12:11:04;99917.09;;;24.65;31.60
34370;BME280;20635;55.812;37.560;2022-11-20T12:16:02;99927.47;;;24.64;31.70
34370;BME280;20635;55.812;37.560;2022-11-20T12:18:29;99921.88;;;24.64;31.80
34370;BME280;20635;55.812;37.560;2022-11-20T12:21:08;99921.53;;;24.66;31.95
34370;BME280;20635;55.812;37.560;2022-11-20T12:37:42;99908.09;;;24.76;31.98
34370;BME280;20635;55.812;37.560;2022-11-20T12:43:26;99913.03;;;24.79;31.64
34370;BME280;20635;55.812;37.560;2022-11-20T12:46:37;99912.19;;;24.79;31.77
34370;BME280;20635;55.812;37.560;2022-11-20T12:54:41;99919.47;;;24.80;31.38
34370;BME280;20635;55.812;37.560;2022-11-20T12:57:20;99920.59;;;24.79;31.54
34370;BME280;20635;55.812;37.560;2022-11-20T13:08:02;99942.22;;;24.78;32.04
34370;BME280;20635;55.812;37.560;2022-11-20T13:10:49;99938.78;;;24.82;31.92
34370;BME280;20635;55.812;37.560;2022-11-20T13:16:16;99943.22;;;24.83;31.82
34370;BME280;20635;55.812;37.560;2022-11-20T13:18:45;99944.19;;;24.78;31.63
34370;BME280;20635;55.812;37.560;2022-11-20T13:21:21;99951.97;;;24.81;31.74
34370;BME280;20635;55.812;37.560;2022-11-20T13:23:48;99935.78;;;24.78;31.49
34370;BME280;20635;55.812;37.560;2022-11-20T13:26:22;99939.94;;;24.80;31.60
34370;BME280;20635;55.812;37.560;2022-11-20T13:29:24;99945.19;;;24.82;31.47
34370;BME280;20635;55.812;37.560;2022-11-20T13:31:50;99948.63;;;24.79;31.52
34370;BME280;20635;55.812;37.560;2022-11-20T13:34:24;99954.75;;;24.81;31.53
34370;BME280;20635;55.812;37.560;2022-11-20T13:36:54;99945.34;;;24.77;31.50
34370;BME280;20635;55.812;37.560;2022-11-20T13:39:42;99945.34;;;24.77;31.45
34370;BME280;20635;55.812;37.560;2022-11-20T13:44:43;99961.00;;;24.78;31.25
34370;BME280;20635;55.812;37.560;2022-11-20T13:47:26;99959.56;;;24.80;31.37
34370;BME280;20635;55.812;37.560;2022-11-20T13:49:54;99952.94;;;24.76;31.38
34370;BME280;20635;55.812;37.560;2022-11-20T13:52:43;99956.41;;;24.82;31.09
34370;BME280;20635;55.812;37.560;2022-11-20T13:55:21;99955.06;;;24.79;31.11
34370;BME280;20635;55.812;37.560;2022-11-20T14:00:22;99969.41;;;24.78;31.37
34370;BME280;20635;55.812;37.560;2022-11-20T14:03:18;99977.69;;;24.83;31.41
34370;BME280;20635;55.812;37.560;2022-11-20T14:05:56;99974.06;;;24.83;31.33
34370;BME280;20635;55.812;37.560;2022-11-20T14:08:47;99973.72;;;24.84;31.44
34370;BME280;20635;55.812;37.560;2022-11-20T14:11:21;99972.41;;;24.82;31.40
34370;BME280;20635;55.812;37.560;2022-11-20T14:14:18;99972.59;;;24.85;31.29
34370;BME280;20635;55.812;37.560;2022-11-20T14:16:45;99970.09;;;24.84;31.80
34370;BME280;20635;55.812;37.560;2022-11-20T14:21:51;99977.88;;;24.87;31.92
34370;BME280;20635;55.812;37.560;2022-11-20T14:24:24;99985.94;;;24.88;31.77
34370;BME280;20635;55.812;37.560;2022-11-20T14:26:51;99992.72;;;24.87;32.21